Time;durP1;ratioP1;P1;durP2;ratioP2;P2;SDS_P1;SDS_P2;PMS_P1;PMS_P2;Temp;Humidity;BMP_temperature;BMP_pressure;BME280_temperature;BME280_humidity;BME280_pressure;Samples;Min_cycle;Max_cycle;Signal;HPM_P1;HPM_P2
2023/01/12 00:01:29;;;;;;;0.10;0.05;;;;;;;12.12;100.00;97852.75;7392151;19;20560;-93
2023/01/12 00:03:55;;;;;;;0.10;0.10;;;;;;;11.73;100.00;97855.47;7389200;19;20357;-94
2023/01/12 00:06:22;;;;;;;0.10;0.00;;;;;;;11.61;100.00;97854.09;7391515;19;20484;-95
2023/01/12 00:08:50;;;;;;;0.03;0.00;;;;;;;10.65;100.00;97855.94;7390666;19;20609;-95
2023/01/12 00:11:17;;;;;;;0.00;0.00;;;;;;;11.57;100.00;97847.31;7390993;19;20021;-96
2023/01/12 00:13:44;;;;;;;1.35;0.15;;;;;;;9.93;100.00;97848.34;7387488;19;20015;-94
2023/01/12 00:16:34;;;;;;;0.20;0.20;;;;;;;12.27;100.00;97845.91;7393322;19;20022;-95
2023/01/12 00:19:11;;;;;;;0.00;0.00;;;;;;;9.79;100.00;97851.50;7388504;19;20045;-95
2023/01/12 00:22:13;;;;;;;0.10;0.00;;;;;;;9.63;100.00;97850.41;7389938;19;20034;-95
2023/01/12 00:24:40;;;;;;;0.40;0.30;;;;;;;11.52;100.00;97846.13;7387113;19;20365;-96
2023/01/12 00:27:08;;;;;;;0.00;0.00;;;;;;;10.19;100.00;97847.88;7388463;19;20011;-95
2023/01/12 00:29:38;;;;;;;0.00;0.00;;;;;;;14.03;100.00;97846.09;7385631;19;20023;-95
2023/01/12 00:32:05;;;;;;;2.22;0.30;;;;;;;11.70;100.00;97848.16;7389364;19;20530;-95
2023/01/12 00:34:32;;;;;;;0.00;0.00;;;;;;;12.46;100.00;97840.97;7389420;19;20074;-95
2023/01/12 00:37:01;;;;;;;0.20;0.10;;;;;;;11.69;100.00;97841.09;7394005;19;20014;-94
2023/01/12 00:39:27;;;;;;;0.00;0.00;;;;;;;16.01;100.00;97843.56;7393546;19;20026;-95
2023/01/12 00:47:24;;;;;;;0.10;0.00;;;;;;;10.71;100.00;97863.47;7398891;19;20018;-96
2023/01/12 00:49:50;;;;;;;0.00;0.00;;;;;;;10.64;100.00;97860.00;7390157;19;20023;-96
2023/01/12 00:52:18;;;;;;;0.08;0.00;;;;;;;12.16;100.00;97852.44;7399926;19;20647;-96
2023/01/12 00:54:44;;;;;;;0.00;0.00;;;;;;;10.85;100.00;97849.13;7407993;19;20018;-96
2023/01/12 00:57:13;;;;;;;0.10;0.10;;;;;;;10.94;100.00;97854.31;7400697;19;20043;-96
2023/01/12 00:59:40;;;;;;;0.10;0.10;;;;;;;10.92;100.00;97853.34;7411963;19;20116;-96
2023/01/12 01:02:06;;;;;;;0.10;0.10;;;;;;;11.02;100.00;97860.06;7409705;19;20021;-96
2023/01/12 01:04:36;;;;;;;0.00;0.00;;;;;;;10.96;100.00;97862.16;7404769;19;20021;-96
2023/01/12 01:07:02;;;;;;;0.00;0.00;;;;;;;11.92;100.00;97860.97;7403564;19;20026;-96
2023/01/12 01:09:29;;;;;;;0.00;0.00;;;;;;;11.60;100.00;97852.59;7393848;19;20022;-96
2023/01/12 01:11:56;;;;;;;0.00;0.00;;;;;;;11.27;100.00;97848.28;7394847;19;20049;-96
2023/01/12 01:14:23;;;;;;;0.10;0.00;;;;;;;11.24;100.00;97835.41;7388411;19;20431;-96
2023/01/12 01:16:49;;;;;;;0.00;0.00;;;;;;;11.21;100.00;97847.63;7406836;19;20022;-92
2023/01/12 01:19:16;;;;;;;0.00;0.00;;;;;;;11.45;100.00;97841.19;7395800;19;20470;-96
2023/01/12 01:21:42;;;;;;;0.10;0.10;;;;;;;12.81;100.00;97843.31;7403446;19;20015;-96
2023/01/12 01:24:10;;;;;;;0.98;0.20;;;;;;;14.83;100.00;97842.91;7398444;19;21073;-88
2023/01/12 01:26:37;;;;;;;0.43;0.43;;;;;;;14.47;100.00;97833.72;7397908;19;20022;-85
2023/01/12 01:29:03;;;;;;;0.00;0.00;;;;;;;12.51;100.00;97826.16;7390517;19;20032;-90
2023/01/12 01:31:29;;;;;;;0.30;0.30;;;;;;;12.46;100.00;97838.16;7394677;19;20011;-89
2023/01/12 01:33:55;;;;;;;0.00;0.00;;;;;;;12.54;100.00;97842.56;7391407;19;20019;-90
2023/01/12 01:36:21;;;;;;;0.00;0.00;;;;;;;12.60;100.00;97834.84;7397537;19;20354;-90
2023/01/12 01:38:49;;;;;;;0.00;0.00;;;;;;;12.26;100.00;97838.81;7393985;19;20030;-90
2023/01/12 01:41:27;;;;;;;0.00;0.00;;;;;;;12.28;100.00;97847.41;7391366;19;20535;-88
2023/01/12 01:43:58;;;;;;;0.10;0.00;;;;;;;12.01;100.00;97836.22;7391319;19;20025;-89
2023/01/12 01:46:33;;;;;;;0.00;0.00;;;;;;;16.13;100.00;97828.63;7396442;19;20112;-89
2023/01/12 01:49:09;;;;;;;0.00;0.00;;;;;;;16.72;100.00;97831.88;7391903;19;20056;-89
2023/01/12 01:51:35;;;;;;;0.10;0.10;;;;;;;14.94;100.00;97845.38;7393614;19;20103;-89
2023/01/12 01:54:03;;;;;;;0.00;0.00;;;;;;;13.62;100.00;97849.66;7389935;19;20014;-89
2023/01/12 01:56:30;;;;;;;0.00;0.00;;;;;;;14.04;100.00;97830.78;7397048;19;20043;-89
2023/01/12 01:58:58;;;;;;;0.47;0.40;;;;;;;16.51;100.00;97837.75;7392609;19;20035;-86
2023/01/12 02:01:25;;;;;;;1.95;0.98;;;;;;;14.49;100.00;97842.31;7392638;19;20110;-86
2023/01/12 02:03:54;;;;;;;0.10;0.00;;;;;;;16.50;100.00;97839.06;7389473;19;20017;-86
2023/01/12 02:06:24;;;;;;;0.13;0.00;;;;;;;18.32;100.00;97838.84;7395823;19;20018;-86
2023/01/12 02:08:53;;;;;;;0.10;0.00;;;;;;;14.30;100.00;97853.78;7389147;19;20458;-86
2023/01/12 02:17:09;;;;;;;0.15;0.15;;;;;;;12.82;100.00;97861.56;7397001;19;20018;-86
2023/01/12 02:20:22;;;;;;;0.00;0.00;;;;;;;13.20;100.00;97864.84;7392256;19;20015;-86
2023/01/12 02:23:21;;;;;;;0.63;0.30;;;;;;;12.89;100.00;97869.28;7390003;19;20025;-86
2023/01/12 02:26:12;;;;;;;0.57;0.35;;;;;;;12.86;100.00;97876.69;7394575;19;20019;-85
2023/01/12 02:28:51;;;;;;;0.10;0.10;;;;;;;13.13;100.00;97880.22;7388730;19;20350;-84
2023/01/12 02:31:52;;;;;;;0.10;0.10;;;;;;;12.90;100.00;97891.13;7387205;19;20014;-84
2023/01/12 02:34:30;;;;;;;0.50;0.20;;;;;;;12.70;100.00;97899.38;7383311;19;20022;-84
2023/01/12 02:37:26;;;;;;;0.32;0.30;;;;;;;12.60;100.00;97901.09;7390665;19;20014;-84
2023/01/12 02:40:00;;;;;;;1.75;0.15;;;;;;;12.59;100.00;97900.34;7391266;19;20026;-84
2023/01/12 02:43:04;;;;;;;0.00;0.00;;;;;;;13.50;100.00;97901.53;7390344;19;20040;-84
2023/01/12 02:45:56;;;;;;;0.00;0.00;;;;;;;12.74;100.00;97913.78;7393359;19;20018;-84
2023/01/12 02:48:31;;;;;;;;;;;;;;;13.26;100.00;97908.16;7393901;19;20014;-84
2023/01/12 02:51:01;;;;;;;0.00;0.00;;;;;;;13.41;100.00;97911.13;7389369;19;19939;-82
2023/01/12 02:53:45;;;;;;;6.50;0.82;;;;;;;12.01;100.00;97925.50;7388813;19;20017;-84
2023/01/12 02:56:17;;;;;;;1.27;0.20;;;;;;;12.18;100.00;97928.75;7391396;19;20019;-84
2023/01/12 02:58:49;;;;;;;6.28;0.20;;;;;;;11.93;100.00;97940.59;7388614;19;20018;-84
2023/01/12 03:01:17;;;;;;;0.10;0.10;;;;;;;11.80;100.00;97944.06;7390721;19;20014;-85
2023/01/12 03:03:45;;;;;;;0.10;0.08;;;;;;;11.74;100.00;97939.84;7388888;19;20047;-85
2023/01/12 03:06:16;;;;;;;5.35;0.70;;;;;;;11.59;100.00;97940.28;7393669;19;20018;-84
2023/01/12 03:08:45;;;;;;;1.02;0.55;;;;;;;11.55;100.00;97950.25;7387942;19;20015;-84
2023/01/12 03:11:18;;;;;;;5.93;0.95;;;;;;;11.63;100.00;97949.09;7387786;19;20028;-84
2023/01/12 03:14:05;;;;;;;0.52;0.38;;;;;;;12.11;100.00;97940.53;7386658;19;20031;-84
2023/01/12 03:16:34;;;;;;;0.10;0.10;;;;;;;11.44;100.00;97949.13;7392820;19;20601;-85
2023/01/12 03:19:25;;;;;;;1.00;0.30;;;;;;;11.33;100.00;97957.63;7387722;19;20014;-84
2023/01/12 03:21:56;;;;;;;0.00;0.00;;;;;;;11.33;100.00;97956.88;7388238;19;20346;-85
2023/01/12 03:24:27;;;;;;;0.25;0.25;;;;;;;11.31;100.00;97953.88;7385029;19;20379;-84
2023/01/12 03:26:58;;;;;;;;;;;;;;;11.29;100.00;97956.44;7393882;19;20023;-84
2023/01/12 03:29:43;;;;;;;0.10;0.00;;;;;;;11.23;100.00;97964.88;7387816;19;19940;-84
2023/01/12 03:32:09;;;;;;;0.13;0.05;;;;;;;11.25;100.00;97967.13;7388743;19;20015;-84
2023/01/12 03:34:36;;;;;;;1.55;0.35;;;;;;;11.30;100.00;97963.50;7390066;19;20023;-84
2023/01/12 03:37:21;;;;;;;0.80;0.40;;;;;;;11.44;100.00;97963.06;7394292;19;20018;-84
2023/01/12 03:40:00;;;;;;;0.35;0.10;;;;;;;11.43;100.00;97967.13;7387685;19;20014;-84
2023/01/12 03:42:53;;;;;;;0.10;0.10;;;;;;;11.37;100.00;97962.91;7387956;19;20098;-84
2023/01/12 03:45:28;;;;;;;0.25;0.25;;;;;;;11.24;100.00;97971.19;7387082;19;20051;-84
2023/01/12 03:48:02;;;;;;;0.20;0.20;;;;;;;11.28;100.00;97966.09;7389565;19;20359;-84
2023/01/12 03:50:37;;;;;;;0.30;0.30;;;;;;;11.33;100.00;97973.59;7387576;19;20018;-84
2023/01/12 03:53:07;;;;;;;1.17;0.57;;;;;;;11.50;100.00;97982.50;7386247;19;20043;-84
2023/01/12 03:55:36;;;;;;;4.13;1.08;;;;;;;11.37;100.00;97979.63;7390475;19;20018;-84
2023/01/12 03:58:03;;;;;;;5.50;1.20;;;;;;;11.27;100.00;97986.84;7386206;19;20047;-83
2023/01/12 04:00:30;;;;;;;0.20;0.15;;;;;;;11.24;100.00;97991.44;7386002;19;20055;-84
2023/01/12 04:03:23;;;;;;;0.20;0.20;;;;;;;11.46;100.00;97984.81;7387354;19;20522;-83
2023/01/12 04:05:49;;;;;;;2.35;0.82;;;;;;;11.50;100.00;97990.84;7388516;19;20014;-83
2023/01/12 04:08:16;;;;;;;4.85;0.40;;;;;;;11.50;100.00;97987.34;7387494;19;20489;-83
2023/01/12 04:10:42;;;;;;;0.63;0.17;;;;;;;11.50;100.00;97992.91;7385194;19;20022;-84
2023/01/12 04:13:08;;;;;;;1.98;0.47;;;;;;;11.47;100.00;97996.75;7385163;19;20018;-83
2023/01/12 04:15:41;;;;;;;2.42;0.47;;;;;;;11.48;100.00;98001.78;7387733;19;20022;-83
2023/01/12 04:18:11;;;;;;;0.30;0.30;;;;;;;11.46;100.00;98004.34;7390781;19;20027;-83
2023/01/12 04:20:38;;;;;;;1.15;0.38;;;;;;;11.44;100.00;98002.09;7387466;19;20018;-84
2023/01/12 04:23:05;;;;;;;4.35;0.32;;;;;;;11.38;100.00;98006.97;7387009;19;20022;-84
2023/01/12 04:25:32;;;;;;;0.10;0.10;;;;;;;11.36;100.00;98014.34;7389109;19;20039;-83
2023/01/12 04:28:02;;;;;;;1.35;0.45;;;;;;;11.29;100.00;98012.91;7383503;19;20024;-83
2023/01/12 04:30:33;;;;;;;2.30;0.75;;;;;;;11.25;100.00;98011.69;7385046;19;20023;-84
2023/01/12 04:33:04;;;;;;;0.50;0.50;;;;;;;11.27;100.00;98020.28;7386259;19;20015;-83
2023/01/12 04:35:30;;;;;;;5.47;0.52;;;;;;;11.32;100.00;98019.47;7386868;19;20047;-83
2023/01/12 04:37:56;;;;;;;1.75;0.55;;;;;;;11.42;100.00;98015.78;7386523;19;20393;-82
2023/01/12 04:40:23;;;;;;;2.85;1.23;;;;;;;11.33;100.00;98018.19;7385158;19;20017;-83
2023/01/12 04:43:00;;;;;;;0.20;0.20;;;;;;;11.33;100.00;98024.50;7385431;19;20029;-83
2023/01/12 04:45:32;;;;;;;0.20;0.20;;;;;;;11.36;100.00;98028.28;7388271;19;20094;-84
2023/01/12 04:48:11;;;;;;;0.00;0.00;;;;;;;11.24;100.00;98022.09;7386774;19;20022;-83
2023/01/12 04:50:38;;;;;;;4.15;0.90;;;;;;;11.42;100.00;98037.34;7386769;19;20573;-83
2023/01/12 04:53:07;;;;;;;3.20;0.55;;;;;;;11.26;100.00;98029.94;7385881;19;20022;-83
2023/01/12 04:55:35;;;;;;;1.75;0.55;;;;;;;11.17;100.00;98021.94;7388976;19;20015;-83
2023/01/12 04:58:02;;;;;;;0.00;0.00;;;;;;;10.93;100.00;98030.31;7394191;19;20389;-83
2023/01/12 05:00:28;;;;;;;0.77;0.65;;;;;;;10.88;100.00;98033.88;7394482;19;20014;-83
2023/01/12 05:03:00;;;;;;;0.70;0.17;;;;;;;10.97;100.00;98025.19;7396606;19;20014;-83
2023/01/12 05:05:28;;;;;;;7.00;0.52;;;;;;;10.96;100.00;98023.69;7393477;19;20011;-84
2023/01/12 05:10:47;;;;;;;3.40;0.65;;;;;;;11.06;100.00;98031.19;7393044;19;20116;-83
2023/01/12 05:13:13;;;;;;;3.00;0.52;;;;;;;10.93;100.00;98041.44;7391696;19;20382;-83
2023/01/12 05:15:40;;;;;;;0.10;0.10;;;;;;;11.01;100.00;98037.56;7395393;19;20021;-83
2023/01/12 05:18:06;;;;;;;0.93;0.68;;;;;;;11.01;100.00;98037.56;7395462;19;20046;-83
2023/01/12 05:20:32;;;;;;;0.10;0.00;;;;;;;11.14;100.00;98046.03;7392101;19;20436;-84
2023/01/12 05:22:58;;;;;;;1.38;0.10;;;;;;;11.21;100.00;98027.97;7392039;19;20053;-83
2023/01/12 05:25:25;;;;;;;0.50;0.50;;;;;;;11.27;100.00;98031.44;7394241;19;20018;-83
2023/01/12 05:27:56;;;;;;;0.38;0.20;;;;;;;11.63;100.00;98035.53;7392880;19;20049;-83
2023/01/12 05:30:23;;;;;;;0.00;0.00;;;;;;;11.94;100.00;98034.91;7392357;19;20471;-83
2023/01/12 05:32:49;;;;;;;0.15;0.00;;;;;;;11.40;100.00;98034.31;7391089;19;20022;-83
2023/01/12 05:35:16;;;;;;;7.60;0.38;;;;;;;11.08;100.00;98042.53;7391222;19;20372;-83
2023/01/12 05:37:42;;;;;;;0.05;0.05;;;;;;;11.08;100.00;98041.78;7391442;19;20015;-82
2023/01/12 05:40:09;;;;;;;1.48;0.20;;;;;;;10.98;100.00;98033.00;7392494;19;20019;-82
2023/01/12 05:45:19;;;;;;;0.10;0.10;;;;;;;10.73;100.00;98045.44;7393973;19;20035;-83
2023/01/12 05:47:45;;;;;;;7.78;0.32;;;;;;;10.81;100.00;98048.38;7395624;19;20085;-86
2023/01/12 05:50:12;;;;;;;2.70;0.22;;;;;;;10.96;100.00;98045.97;7390492;19;20018;-82
2023/01/12 05:52:38;;;;;;;0.10;0.00;;;;;;;10.83;100.00;98043.81;7391186;19;20031;-83
2023/01/12 05:55:04;;;;;;;2.17;0.20;;;;;;;10.86;100.00;98047.56;7393964;19;20035;-82
2023/01/12 05:57:30;;;;;;;1.30;0.70;;;;;;;10.61;100.00;98052.38;7391313;19;20022;-81
2023/01/12 05:59:57;;;;;;;10.15;0.88;;;;;;;10.84;100.00;98045.31;7389065;19;20034;-82
2023/01/12 06:02:23;;;;;;;2.17;0.63;;;;;;;10.78;100.00;98055.00;7388751;19;20023;-82
2023/01/12 06:04:49;;;;;;;0.03;0.03;;;;;;;10.53;100.00;98054.97;7390122;19;20086;-82
2023/01/12 06:07:15;;;;;;;0.08;0.00;;;;;;;10.53;100.00;98054.97;7389189;19;20019;-82
2023/01/12 06:09:41;;;;;;;0.10;0.00;;;;;;;10.48;100.00;98047.41;7387737;19;20105;-82
2023/01/12 06:14:54;;;;;;;0.38;0.38;;;;;;;12.27;100.00;98049.63;7392460;19;20686;-82
2023/01/12 06:17:20;;;;;;;4.30;0.38;;;;;;;11.18;100.00;98057.63;7391233;19;20465;-82
2023/01/12 06:19:47;;;;;;;3.78;0.22;;;;;;;10.90;100.00;98059.19;7389760;19;20357;-82
2023/01/12 06:22:13;;;;;;;3.50;0.88;;;;;;;10.58;100.00;98058.97;7389024;19;20081;-82
2023/01/12 06:24:39;;;;;;;1.67;0.93;;;;;;;10.47;100.00;98057.03;7389737;19;20357;-82
2023/01/12 06:27:06;;;;;;;3.60;0.28;;;;;;;10.31;100.00;98068.31;7390455;19;20018;-82
2023/01/12 06:29:32;;;;;;;0.10;0.10;;;;;;;10.19;100.00;98067.63;7389833;19;20102;-82
2023/01/12 06:31:58;;;;;;;0.75;0.63;;;;;;;9.94;100.00;98072.28;7391094;19;20018;-82
2023/01/12 06:34:24;;;;;;;2.47;0.30;;;;;;;9.83;100.00;98072.34;7385984;19;20400;-81
2023/01/12 06:36:50;;;;;;;3.72;0.65;;;;;;;9.70;100.00;98072.16;7391659;19;20007;-82
2023/01/12 06:39:16;;;;;;;0.10;0.10;;;;;;;9.62;100.00;98079.53;7389725;19;20018;-81
2023/01/12 06:44:27;;;;;;;6.25;0.50;;;;;;;9.47;100.00;98062.44;7388276;19;20377;-82
2023/01/12 06:46:53;;;;;;;7.63;0.47;;;;;;;9.51;100.00;98078.81;7393707;19;20018;-82
2023/01/12 06:49:20;;;;;;;6.03;1.33;;;;;;;9.54;100.00;98080.59;7390077;19;20090;-81
2023/01/12 06:51:50;;;;;;;0.65;0.43;;;;;;;9.34;100.00;98083.69;7391872;19;20022;-81
2023/01/12 06:54:16;;;;;;;3.30;0.77;;;;;;;9.31;100.00;98079.16;7387798;19;20078;-82
2023/01/12 06:56:42;;;;;;;1.25;0.40;;;;;;;9.56;100.00;98083.59;7391794;19;20022;-81
2023/01/12 06:59:11;;;;;;;1.77;0.30;;;;;;;9.51;100.00;98081.59;7387704;19;20034;-82
2023/01/12 07:01:38;;;;;;;3.88;1.02;;;;;;;9.40;100.00;98078.88;7389202;19;20508;-81
2023/01/12 07:04:05;;;;;;;2.20;0.30;;;;;;;9.37;100.00;98079.91;7386044;19;20026;-81
2023/01/12 07:06:32;;;;;;;1.17;0.15;;;;;;;9.40;100.00;98090.00;7393864;19;20010;-82
2023/01/12 07:08:58;;;;;;;2.45;0.15;;;;;;;9.52;100.00;98097.00;7386492;19;20014;-84
2023/01/12 07:11:24;;;;;;;0.50;0.50;;;;;;;9.63;100.00;98103.28;7390037;19;20022;-84
2023/01/12 07:13:50;;;;;;;0.25;0.25;;;;;;;9.65;100.00;98100.75;7386696;19;20018;-84
2023/01/12 07:16:16;;;;;;;1.67;0.17;;;;;;;9.81;100.00;98101.97;7389821;19;20010;-85
2023/01/12 07:18:42;;;;;;;1.50;0.82;;;;;;;9.94;100.00;98099.34;7390436;19;20024;-82
2023/01/12 07:21:12;;;;;;;1.15;0.22;;;;;;;10.01;100.00;98092.47;7386286;19;20018;-82
2023/01/12 07:23:40;;;;;;;1.00;0.20;;;;;;;10.11;100.00;98097.28;7386037;19;20011;-82
2023/01/12 07:26:07;;;;;;;4.38;1.10;;;;;;;10.13;100.00;98094.72;7391834;19;20024;-82
2023/01/12 07:28:33;;;;;;;2.15;1.80;;;;;;;10.02;100.00;98099.56;7388184;19;20038;-82
2023/01/12 07:31:01;;;;;;;0.10;0.10;;;;;;;9.94;100.00;98104.91;7387396;19;20015;-81
2023/01/12 07:33:28;;;;;;;0.20;0.20;;;;;;;10.01;100.00;98101.56;7384571;19;20137;-82
2023/01/12 07:36:00;;;;;;;0.32;0.28;;;;;;;9.99;100.00;98106.13;7390198;19;20449;-82
2023/01/12 07:38:27;;;;;;;0.40;0.20;;;;;;;10.03;100.00;98101.81;7388802;19;20035;-82
2023/01/12 07:40:56;;;;;;;0.10;0.00;;;;;;;10.22;100.00;98107.56;7387080;19;20018;-82
2023/01/12 07:43:22;;;;;;;0.15;0.15;;;;;;;10.43;100.00;98089.22;7386300;19;20049;-85
2023/01/12 07:45:49;;;;;;;1.30;0.57;;;;;;;10.49;100.00;98093.47;7392148;19;21090;-85
2023/01/12 07:48:15;;;;;;;10.57;1.30;;;;;;;10.34;100.00;98095.84;7391256;19;20032;-85
2023/01/12 07:50:41;;;;;;;1.58;0.30;;;;;;;10.06;100.00;98094.47;7388336;19;20021;-85
2023/01/12 07:53:07;;;;;;;0.28;0.08;;;;;;;9.88;100.00;98107.72;7388634;19;20014;-85
2023/01/12 07:55:34;;;;;;;0.10;0.00;;;;;;;9.86;100.00;98109.50;7393564;19;20361;-84
2023/01/12 07:58:02;;;;;;;0.32;0.32;;;;;;;9.73;100.00;98101.72;7389675;19;20026;-85
2023/01/12 08:00:30;;;;;;;2.20;0.47;;;;;;;9.71;100.00;98109.06;7389145;19;20021;-84
2023/01/12 08:03:05;;;;;;;0.00;0.00;;;;;;;9.66;100.00;98105.03;7387698;19;20026;-82
2023/01/12 08:05:32;;;;;;;0.38;0.35;;;;;;;9.51;100.00;98101.81;7388846;19;20027;-81
2023/01/12 08:07:59;;;;;;;0.20;0.20;;;;;;;9.47;100.00;98101.31;7387918;19;20019;-84
2023/01/12 08:10:26;;;;;;;0.10;0.10;;;;;;;9.36;100.00;98106.16;7385061;19;20028;-85
2023/01/12 08:12:53;;;;;;;0.00;0.00;;;;;;;9.38;100.00;98120.28;7385403;19;20025;-82
2023/01/12 08:15:19;;;;;;;0.20;0.10;;;;;;;9.41;100.00;98130.38;7388831;19;20018;-82
2023/01/12 08:17:51;;;;;;;0.20;0.20;;;;;;;9.42;100.00;98131.91;7387702;19;20022;-82
2023/01/12 08:20:26;;;;;;;6.75;0.95;;;;;;;9.84;100.00;98134.28;7386495;19;20468;-82
2023/01/12 08:22:56;;;;;;;0.20;0.10;;;;;;;9.85;100.00;98116.34;7387955;19;20051;-82
2023/01/12 08:25:29;;;;;;;0.10;0.00;;;;;;;9.90;100.00;98110.75;7389916;19;20032;-82
2023/01/12 08:27:59;;;;;;;0.50;0.13;;;;;;;9.90;100.00;98102.41;7386083;19;20014;-83
2023/01/12 08:30:27;;;;;;;0.30;0.22;;;;;;;10.00;100.00;98113.22;7382147;19;20018;-82
2023/01/12 08:32:59;;;;;;;7.88;0.20;;;;;;;10.00;100.00;98097.31;7386282;19;20566;-82
2023/01/12 08:35:28;;;;;;;0.40;0.10;;;;;;;10.03;100.00;98096.25;7388633;19;20011;-83
2023/01/12 08:37:55;;;;;;;2.63;0.20;;;;;;;10.08;100.00;98094.72;7386717;19;20487;-82
2023/01/12 08:40:23;;;;;;;0.00;0.00;;;;;;;10.04;100.00;98097.78;7386281;19;20011;-82
2023/01/12 08:42:49;;;;;;;1.30;0.30;;;;;;;10.08;100.00;98084.34;7385203;19;20049;-83
2023/01/12 08:45:15;;;;;;;0.43;0.35;;;;;;;10.20;100.00;98080.25;7388282;19;20015;-82
2023/01/12 08:47:43;;;;;;;0.30;0.10;;;;;;;10.31;100.00;98066.25;7386836;19;20019;-82
2023/01/12 08:50:09;;;;;;;1.38;0.30;;;;;;;10.20;100.00;98074.69;7384581;19;20030;-83
2023/01/12 08:52:35;;;;;;;8.57;1.30;;;;;;;10.43;100.00;98084.41;7385585;19;20347;-83
2023/01/12 08:55:02;;;;;;;0.10;0.10;;;;;;;10.74;100.00;98074.78;7387617;19;20015;-83
2023/01/12 08:57:28;;;;;;;2.35;0.32;;;;;;;10.66;100.00;98074.59;7389199;19;20817;-83
2023/01/12 08:59:56;;;;;;;1.10;0.82;;;;;;;10.40;100.00;98081.88;7390477;19;20054;-83
2023/01/12 09:02:24;;;;;;;0.20;0.10;;;;;;;10.49;100.00;98081.56;7386912;19;20010;-83
2023/01/12 09:04:50;;;;;;;6.35;0.47;;;;;;;10.48;100.00;98091.19;7385904;19;20045;-83
2023/01/12 09:07:16;;;;;;;0.10;0.10;;;;;;;10.48;100.00;98085.63;7383550;19;20018;-83
2023/01/12 09:09:42;;;;;;;2.42;0.30;;;;;;;10.59;100.00;98082.72;7384302;19;20011;-83
2023/01/12 09:12:08;;;;;;;0.45;0.15;;;;;;;10.61;100.00;98080.94;7387492;19;20483;-83
2023/01/12 09:14:37;;;;;;;0.00;0.00;;;;;;;10.62;100.00;98081.72;7383686;19;20022;-83
2023/01/12 09:17:06;;;;;;;0.68;0.40;;;;;;;10.62;100.00;98087.28;7387101;19;20029;-83
2023/01/12 09:19:32;;;;;;;3.80;0.38;;;;;;;10.80;100.00;98088.66;7383418;19;20047;-83
2023/01/12 09:21:58;;;;;;;0.10;0.10;;;;;;;10.96;100.00;98093.31;7383811;19;20018;-84
2023/01/12 09:24:24;;;;;;;0.10;0.00;;;;;;;11.01;100.00;98090.47;7384397;19;20010;-84
2023/01/12 09:26:51;;;;;;;0.10;0.00;;;;;;;10.98;100.00;98082.41;7392321;19;20469;-83
2023/01/12 09:29:17;;;;;;;0.00;0.00;;;;;;;11.01;100.00;98073.00;7385702;19;20358;-83
2023/01/12 09:31:44;;;;;;;0.68;0.43;;;;;;;11.10;100.00;98055.94;7387474;19;20098;-83
2023/01/12 09:34:11;;;;;;;0.22;0.17;;;;;;;10.99;100.00;98062.38;7381505;19;20026;-83
2023/01/12 09:36:38;;;;;;;7.60;0.95;;;;;;;10.98;100.00;98069.22;7388269;19;20014;-83
2023/01/12 09:39:06;;;;;;;0.85;0.10;;;;;;;11.04;100.00;98069.19;7384804;19;20031;-84
2023/01/12 09:47:52;;;;;;;0.22;0.22;;;;;;;11.10;100.00;98078.22;7395386;19;20021;-83
2023/01/12 09:50:27;;;;;;;4.28;0.30;;;;;;;11.15;100.00;98069.81;7391207;19;20025;-84
2023/01/12 09:53:01;;;;;;;6.30;0.22;;;;;;;11.18;100.00;98068.00;7393364;19;20047;-83
2023/01/12 09:55:53;;;;;;;0.10;0.00;;;;;;;11.21;100.00;98066.97;7394332;19;20022;-83
2023/01/12 09:58:37;;;;;;;1.00;0.28;;;;;;;11.26;100.00;98052.22;7390707;19;20042;-83
2023/01/12 10:01:16;;;;;;;0.38;0.35;;;;;;;11.36;100.00;98056.16;7393272;19;20018;-83
2023/01/12 10:03:42;;;;;;;0.10;0.00;;;;;;;11.44;100.00;98045.91;7391929;19;20045;-83
2023/01/12 10:06:18;;;;;;;0.20;0.20;;;;;;;11.49;100.00;98042.31;7396607;19;20014;-84
2023/01/12 10:08:57;;;;;;;0.00;0.00;;;;;;;11.77;100.00;98051.13;7391888;19;20015;-83
2023/01/12 10:11:45;;;;;;;0.00;0.00;;;;;;;11.91;100.00;98040.78;7393125;19;20011;-84
2023/01/12 10:14:18;;;;;;;0.85;0.10;;;;;;;12.00;100.00;98041.16;7390410;19;20084;-83
2023/01/12 10:17:08;;;;;;;0.00;0.00;;;;;;;11.97;100.00;98038.66;7397951;19;20030;-84
2023/01/12 10:19:55;;;;;;;0.10;0.00;;;;;;;11.95;100.00;98039.19;7392889;19;20015;-84
2023/01/12 10:22:38;;;;;;;0.10;0.10;;;;;;;11.97;100.00;98039.44;7389445;19;20031;-85
2023/01/12 10:25:13;;;;;;;0.00;0.00;;;;;;;11.93;100.00;98036.16;7390112;19;20357;-85
2023/01/12 10:27:43;;;;;;;0.13;0.13;;;;;;;12.08;100.00;98036.44;7391752;19;20018;-85
2023/01/12 10:30:30;;;;;;;0.10;0.00;;;;;;;12.07;100.00;98032.16;7387928;19;20134;-85
2023/01/12 10:33:07;;;;;;;0.20;0.20;;;;;;;12.19;100.00;98041.88;7390333;19;20049;-83
2023/01/12 10:35:33;;;;;;;0.10;0.10;;;;;;;12.21;100.00;98035.78;7391333;19;20025;-87
2023/01/12 10:37:59;;;;;;;0.15;0.08;;;;;;;12.54;100.00;98034.50;7394929;19;20010;-85
2023/01/12 10:40:31;;;;;;;2.55;0.35;;;;;;;12.38;100.00;98029.94;7393299;19;20030;-86
2023/01/12 10:43:18;;;;;;;0.10;0.00;;;;;;;12.22;100.00;98033.72;7390837;19;20014;-86
2023/01/12 10:46:01;;;;;;;0.13;0.13;;;;;;;12.51;100.00;98029.97;7393664;19;20026;-85
2023/01/12 10:48:27;;;;;;;0.10;0.00;;;;;;;12.36;100.00;98029.69;7395958;19;20498;-87
2023/01/12 10:51:02;;;;;;;0.52;0.00;;;;;;;12.40;100.00;98010.59;7391406;19;20018;-87
2023/01/12 10:53:46;;;;;;;0.30;0.20;;;;;;;12.48;100.00;98011.47;7391377;19;20470;-86
2023/01/12 10:56:21;;;;;;;0.10;0.10;;;;;;;12.48;100.00;98003.84;7396919;19;20018;-86
2023/01/12 10:59:03;;;;;;;1.17;0.10;;;;;;;12.32;100.00;97998.56;7396117;19;20082;-87
2023/01/12 11:01:48;;;;;;;0.30;0.20;;;;;;;12.29;100.00;97999.63;7392881;19;20043;-86
2023/01/12 11:04:19;;;;;;;0.22;0.20;;;;;;;12.27;100.00;97986.19;7392256;19;20048;-85
2023/01/12 11:07:07;;;;;;;0.00;0.00;;;;;;;12.37;100.00;97989.31;7397080;19;20787;-85
2023/01/12 11:09:33;;;;;;;0.10;0.10;;;;;;;12.49;100.00;97985.06;7391468;19;20022;-86
2023/01/12 11:12:02;;;;;;;0.10;0.10;;;;;;;12.59;100.00;97977.78;7391332;19;20023;-84
2023/01/12 11:14:37;;;;;;;0.00;0.00;;;;;;;12.66;100.00;97963.19;7391082;19;20051;-84
2023/01/12 11:17:26;;;;;;;0.13;0.00;;;;;;;12.56;100.00;97959.31;7393252;19;20743;-86
2023/01/12 11:19:54;;;;;;;1.42;0.13;;;;;;;12.52;100.00;97956.06;7391960;19;20011;-83
2023/01/12 11:22:26;;;;;;;0.00;0.00;;;;;;;12.62;100.00;97960.72;7392100;19;20039;-88
2023/01/12 11:24:59;;;;;;;0.00;0.00;;;;;;;12.54;100.00;97959.84;7393557;19;20039;-85
2023/01/12 11:27:42;;;;;;;0.00;0.00;;;;;;;12.70;100.00;97950.41;7390907;19;20019;-85
2023/01/12 11:30:23;;;;;;;0.35;0.30;;;;;;;12.81;100.00;97950.22;7388570;19;20370;-85
2023/01/12 11:33:09;;;;;;;0.15;0.08;;;;;;;12.91;100.00;97948.47;7390434;19;20018;-86
2023/01/12 11:35:52;;;;;;;2.75;0.32;;;;;;;13.32;100.00;97947.91;7396253;19;20016;-87
2023/01/12 11:38:27;;;;;;;2.20;0.10;;;;;;;13.05;100.00;97946.47;7393810;19;20052;-86
2023/01/12 11:40:57;;;;;;;7.07;0.22;;;;;;;12.89;100.00;97927.94;7393180;19;20015;-87
2023/01/12 11:43:54;;;;;;;0.60;0.32;;;;;;;13.01;100.00;97937.63;7393521;19;20461;-86
2023/01/12 11:46:20;;;;;;;1.23;0.10;;;;;;;12.98;100.00;97955.47;7396241;19;20034;-84
2023/01/12 11:49:10;;;;;;;1.00;0.43;;;;;;;12.98;100.00;97938.69;7394833;19;20022;-87
2023/01/12 11:51:37;;;;;;;0.22;0.03;;;;;;;12.96;100.00;97932.91;7394317;19;20021;-87
2023/01/12 11:54:06;;;;;;;0.57;0.20;;;;;;;13.07;100.00;97931.94;7393287;19;20018;-87
2023/01/12 11:56:53;;;;;;;0.00;0.00;;;;;;;13.19;100.00;97936.75;7398257;19;20422;-86
2023/01/12 11:59:38;;;;;;;5.65;0.75;;;;;;;13.57;100.00;97918.41;7394780;19;20014;-87
2023/01/12 12:02:31;;;;;;;0.20;0.00;;;;;;;13.22;100.00;97912.56;7392593;19;20549;-86
2023/01/12 12:05:22;;;;;;;3.65;0.28;;;;;;;13.11;100.00;97915.59;7390361;19;20014;-87
2023/01/12 12:08:20;;;;;;;0.93;0.13;;;;;;;13.15;100.00;97900.00;7394253;19;20014;-85
2023/01/12 12:11:00;;;;;;;1.17;0.28;;;;;;;12.96;100.00;97910.53;7393782;19;20052;-86
2023/01/12 12:13:31;;;;;;;0.15;0.15;;;;;;;12.92;100.00;97894.13;7392024;19;20030;-87
2023/01/12 12:16:28;;;;;;;3.72;0.45;;;;;;;12.78;100.00;97895.41;7395782;19;20014;-86